Mistral — TCCH — position and weather

sailwx.info

Track history (hours):
 
Tides and Currents Weather Stations Pressure Air Temp Water Temp Dewpoint Dewpoint Depression Visibility Wind Speed Wind Dir Waves Ship Positions

Mistral

Last reported at 2017-Jan-19 04:09 UTC. Time now 2017-Jan-20 11:58 UTC.
Position N 36°39' E 014°33'.

Length 126 m; draft 6.7 m.

Type: Cargo ship. MMSI: 271000615.

Date/timePositionNaut miles runAvg speedWind from/ knotsBaromVisibWave heightAir tempDewpointWater temp
2017-Jan-19 04:09N 36°39' E 014°33'6 9.9
2017-Jan-19 03:33N 36°40' E 014°26'9 9.5
2017-Jan-19 02:33N 36°42' E 014°14'10 9.5
2017-Jan-19 01:30N 36°44' E 014°02'167 9.8
2017-Jan-18 08:33N 37°29' E 010°40'1110.6
2017-Jan-18 07:33N 37°30' E 010°27'  
2017-Jan-13 11:33N 38°22' W 010°00'1010.1
2017-Jan-13 10:31N 38°32' W 010°04'10 9.9
2017-Jan-13 09:33N 38°42' W 010°06'11 9.9
2017-Jan-13 08:28N 38°53' W 010°07'  
Track history (hours):
 
Tides and Currents Weather Stations Pressure Air Temp Water Temp Dewpoint Dewpoint Depression Visibility Wind Speed Wind Dir Waves Ship Positions

Mistral

Last reported at 2017-Jan-19 04:09 UTC. Time now 2017-Jan-20 11:58 UTC.
Position N 36°39' E 014°33'.

Length 126 m; draft 6.7 m.

Type: Cargo ship. MMSI: 271000615.

Date/timePositionNaut miles runAvg speedWind from/ knotsBaromVisibWave heightAir tempDewpointWater temp
2017-Jan-19 04:09N 36°39' E 014°33'6 9.9
2017-Jan-19 03:33N 36°40' E 014°26'9 9.5
2017-Jan-19 02:33N 36°42' E 014°14'10 9.5
2017-Jan-19 01:30N 36°44' E 014°02'167 9.8
2017-Jan-18 08:33N 37°29' E 010°40'1110.6
2017-Jan-18 07:33N 37°30' E 010°27'  
2017-Jan-13 11:33N 38°22' W 010°00'1010.1
2017-Jan-13 10:31N 38°32' W 010°04'10 9.9
2017-Jan-13 09:33N 38°42' W 010°06'11 9.9
2017-Jan-13 08:28N 38°53' W 010°07'  

Dump ship's entire track history